sensor_id;sensor_type;location;lat;lon;timestamp;P1;durP1;ratioP1;P2;durP2;ratioP2
12852;SDS011;6495;51.808;7.478;2022-07-17T00:01:18;2.05;;;1.30;;
12852;SDS011;6495;51.808;7.478;2022-07-17T00:03:47;3.17;;;1.38;;
12852;SDS011;6495;51.808;7.478;2022-07-17T00:06:15;1.88;;;1.23;;
12852;SDS011;6495;51.808;7.478;2022-07-17T00:08:43;3.30;;;1.33;;
12852;SDS011;6495;51.808;7.478;2022-07-17T00:11:11;2.95;;;1.10;;
12852;SDS011;6495;51.808;7.478;2022-07-17T00:13:39;3.13;;;1.05;;
12852;SDS011;6495;51.808;7.478;2022-07-17T00:16:09;3.10;;;1.15;;
12852;SDS011;6495;51.808;7.478;2022-07-17T00:18:37;4.03;;;1.27;;
12852;SDS011;6495;51.808;7.478;2022-07-17T00:21:05;2.85;;;1.40;;
12852;SDS011;6495;51.808;7.478;2022-07-17T00:23:33;2.95;;;1.20;;
12852;SDS011;6495;51.808;7.478;2022-07-17T00:26:02;2.67;;;1.05;;
12852;SDS011;6495;51.808;7.478;2022-07-17T00:28:30;2.13;;;1.10;;
12852;SDS011;6495;51.808;7.478;2022-07-17T00:30:58;3.67;;;1.30;;
12852;SDS011;6495;51.808;7.478;2022-07-17T00:33:27;2.33;;;1.40;;
12852;SDS011;6495;51.808;7.478;2022-07-17T00:35:55;1.88;;;0.98;;
12852;SDS011;6495;51.808;7.478;2022-07-17T00:38:24;3.67;;;1.30;;
12852;SDS011;6495;51.808;7.478;2022-07-17T00:40:52;1.30;;;1.17;;
12852;SDS011;6495;51.808;7.478;2022-07-17T00:43:22;1.85;;;1.40;;
12852;SDS011;6495;51.808;7.478;2022-07-17T00:45:56;4.80;;;1.30;;
12852;SDS011;6495;51.808;7.478;2022-07-17T00:48:25;1.30;;;1.20;;
12852;SDS011;6495;51.808;7.478;2022-07-17T00:50:55;4.13;;;1.30;;
12852;SDS011;6495;51.808;7.478;2022-07-17T00:53:23;3.65;;;1.25;;
12852;SDS011;6495;51.808;7.478;2022-07-17T00:55:52;3.33;;;1.20;;
12852;SDS011;6495;51.808;7.478;2022-07-17T00:58:23;4.15;;;1.45;;
12852;SDS011;6495;51.808;7.478;2022-07-17T01:00:53;2.38;;;1.40;;
12852;SDS011;6495;51.808;7.478;2022-07-17T01:03:23;3.58;;;1.65;;
12852;SDS011;6495;51.808;7.478;2022-07-17T01:05:54;2.45;;;1.33;;
12852;SDS011;6495;51.808;7.478;2022-07-17T01:08:22;4.35;;;1.50;;
12852;SDS011;6495;51.808;7.478;2022-07-17T01:10:50;1.67;;;1.23;;
12852;SDS011;6495;51.808;7.478;2022-07-17T01:13:18;2.45;;;1.52;;
12852;SDS011;6495;51.808;7.478;2022-07-17T01:15:47;2.90;;;1.35;;
12852;SDS011;6495;51.808;7.478;2022-07-17T01:18:16;2.42;;;1.35;;
12852;SDS011;6495;51.808;7.478;2022-07-17T01:20:47;3.72;;;1.58;;
12852;SDS011;6495;51.808;7.478;2022-07-17T01:23:18;1.88;;;1.52;;
12852;SDS011;6495;51.808;7.478;2022-07-17T01:25:47;4.15;;;1.63;;
12852;SDS011;6495;51.808;7.478;2022-07-17T01:28:15;1.67;;;1.33;;
12852;SDS011;6495;51.808;7.478;2022-07-17T01:30:45;2.72;;;1.17;;
12852;SDS011;6495;51.808;7.478;2022-07-17T01:33:15;4.63;;;1.65;;
12852;SDS011;6495;51.808;7.478;2022-07-17T01:35:44;1.80;;;1.13;;
12852;SDS011;6495;51.808;7.478;2022-07-17T01:38:12;3.95;;;1.50;;
12852;SDS011;6495;51.808;7.478;2022-07-17T01:40:42;1.63;;;1.38;;
12852;SDS011;6495;51.808;7.478;2022-07-17T01:43:10;1.45;;;1.15;;
12852;SDS011;6495;51.808;7.478;2022-07-17T01:45:38;3.13;;;1.42;;
12852;SDS011;6495;51.808;7.478;2022-07-17T01:48:06;2.72;;;1.52;;
12852;SDS011;6495;51.808;7.478;2022-07-17T01:50:35;1.70;;;1.50;;
12852;SDS011;6495;51.808;7.478;2022-07-17T01:53:03;1.27;;;1.13;;
12852;SDS011;6495;51.808;7.478;2022-07-17T01:55:31;2.63;;;1.30;;
12852;SDS011;6495;51.808;7.478;2022-07-17T01:58:00;1.38;;;1.27;;
12852;SDS011;6495;51.808;7.478;2022-07-17T02:00:28;2.85;;;1.30;;
12852;SDS011;6495;51.808;7.478;2022-07-17T02:02:57;3.30;;;1.20;;
12852;SDS011;6495;51.808;7.478;2022-07-17T02:05:25;1.52;;;1.23;;
12852;SDS011;6495;51.808;7.478;2022-07-17T02:07:53;1.70;;;1.33;;
12852;SDS011;6495;51.808;7.478;2022-07-17T02:10:31;1.38;;;1.20;;
12852;SDS011;6495;51.808;7.478;2022-07-17T02:13:01;2.60;;;1.50;;
12852;SDS011;6495;51.808;7.478;2022-07-17T02:15:29;3.30;;;1.30;;
12852;SDS011;6495;51.808;7.478;2022-07-17T02:17:58;3.45;;;1.33;;
12852;SDS011;6495;51.808;7.478;2022-07-17T02:20:26;2.03;;;1.35;;
12852;SDS011;6495;51.808;7.478;2022-07-17T02:22:54;2.05;;;1.50;;
12852;SDS011;6495;51.808;7.478;2022-07-17T02:25:22;1.98;;;1.50;;
12852;SDS011;6495;51.808;7.478;2022-07-17T02:27:50;2.45;;;1.63;;
12852;SDS011;6495;51.808;7.478;2022-07-17T02:30:19;1.50;;;1.13;;
12852;SDS011;6495;51.808;7.478;2022-07-17T02:32:47;3.00;;;1.40;;
12852;SDS011;6495;51.808;7.478;2022-07-17T02:35:15;5.07;;;1.58;;
12852;SDS011;6495;51.808;7.478;2022-07-17T02:37:43;2.78;;;1.30;;
12852;SDS011;6495;51.808;7.478;2022-07-17T02:40:12;1.60;;;1.25;;
12852;SDS011;6495;51.808;7.478;2022-07-17T02:42:41;1.92;;;1.30;;
12852;SDS011;6495;51.808;7.478;2022-07-17T02:45:09;3.58;;;1.60;;
12852;SDS011;6495;51.808;7.478;2022-07-17T02:47:39;3.42;;;1.40;;
12852;SDS011;6495;51.808;7.478;2022-07-17T02:50:09;3.95;;;1.60;;
12852;SDS011;6495;51.808;7.478;2022-07-17T02:52:38;3.10;;;1.55;;
12852;SDS011;6495;51.808;7.478;2022-07-17T02:55:07;4.38;;;1.92;;
12852;SDS011;6495;51.808;7.478;2022-07-17T02:57:36;2.83;;;1.50;;
12852;SDS011;6495;51.808;7.478;2022-07-17T03:00:05;3.47;;;1.65;;
12852;SDS011;6495;51.808;7.478;2022-07-17T03:02:37;2.13;;;1.45;;
12852;SDS011;6495;51.808;7.478;2022-07-17T03:05:07;4.80;;;1.50;;
12852;SDS011;6495;51.808;7.478;2022-07-17T03:07:35;1.65;;;1.40;;
12852;SDS011;6495;51.808;7.478;2022-07-17T03:10:04;2.92;;;1.15;;
12852;SDS011;6495;51.808;7.478;2022-07-17T03:12:34;3.33;;;1.70;;
12852;SDS011;6495;51.808;7.478;2022-07-17T03:15:02;1.42;;;1.13;;
12852;SDS011;6495;51.808;7.478;2022-07-17T03:17:32;2.50;;;1.48;;
12852;SDS011;6495;51.808;7.478;2022-07-17T03:20:00;5.60;;;1.55;;
12852;SDS011;6495;51.808;7.478;2022-07-17T03:22:30;2.85;;;1.33;;
12852;SDS011;6495;51.808;7.478;2022-07-17T03:24:58;1.52;;;1.40;;
12852;SDS011;6495;51.808;7.478;2022-07-17T03:27:26;2.22;;;1.25;;
12852;SDS011;6495;51.808;7.478;2022-07-17T03:29:54;3.30;;;1.52;;
12852;SDS011;6495;51.808;7.478;2022-07-17T03:32:22;2.42;;;1.63;;
12852;SDS011;6495;51.808;7.478;2022-07-17T03:34:51;3.70;;;1.50;;
12852;SDS011;6495;51.808;7.478;2022-07-17T03:37:19;3.83;;;1.65;;
12852;SDS011;6495;51.808;7.478;2022-07-17T03:39:48;4.80;;;1.80;;
12852;SDS011;6495;51.808;7.478;2022-07-17T03:42:17;1.88;;;1.38;;
12852;SDS011;6495;51.808;7.478;2022-07-17T03:44:44;3.85;;;1.60;;
12852;SDS011;6495;51.808;7.478;2022-07-17T03:47:13;3.88;;;1.88;;
12852;SDS011;6495;51.808;7.478;2022-07-17T03:49:41;5.45;;;1.80;;
12852;SDS011;6495;51.808;7.478;2022-07-17T03:52:09;3.72;;;1.60;;
12852;SDS011;6495;51.808;7.478;2022-07-17T03:54:37;4.22;;;1.55;;
12852;SDS011;6495;51.808;7.478;2022-07-17T03:57:07;4.15;;;1.70;;
12852;SDS011;6495;51.808;7.478;2022-07-17T03:59:35;3.85;;;1.73;;
12852;SDS011;6495;51.808;7.478;2022-07-17T04:02:03;3.15;;;1.60;;
12852;SDS011;6495;51.808;7.478;2022-07-17T04:04:31;3.92;;;1.80;;
12852;SDS011;6495;51.808;7.478;2022-07-17T04:06:59;3.95;;;1.70;;
12852;SDS011;6495;51.808;7.478;2022-07-17T04:09:27;4.03;;;1.30;;
12852;SDS011;6495;51.808;7.478;2022-07-17T04:11:55;5.47;;;1.60;;
12852;SDS011;6495;51.808;7.478;2022-07-17T04:14:25;2.08;;;1.45;;
12852;SDS011;6495;51.808;7.478;2022-07-17T04:16:53;2.08;;;1.30;;
12852;SDS011;6495;51.808;7.478;2022-07-17T04:19:21;2.83;;;1.65;;
12852;SDS011;6495;51.808;7.478;2022-07-17T04:21:49;2.83;;;1.45;;
12852;SDS011;6495;51.808;7.478;2022-07-17T04:24:17;3.90;;;1.55;;
12852;SDS011;6495;51.808;7.478;2022-07-17T04:26:45;5.15;;;1.73;;
12852;SDS011;6495;51.808;7.478;2022-07-17T04:29:13;2.58;;;1.50;;
12852;SDS011;6495;51.808;7.478;2022-07-17T04:31:43;2.35;;;1.52;;
12852;SDS011;6495;51.808;7.478;2022-07-17T04:34:11;3.70;;;1.70;;
12852;SDS011;6495;51.808;7.478;2022-07-17T04:36:39;4.43;;;1.70;;
12852;SDS011;6495;51.808;7.478;2022-07-17T04:39:07;3.00;;;1.65;;
12852;SDS011;6495;51.808;7.478;2022-07-17T04:41:35;3.60;;;1.50;;
12852;SDS011;6495;51.808;7.478;2022-07-17T04:44:03;1.75;;;1.30;;
12852;SDS011;6495;51.808;7.478;2022-07-17T04:46:31;3.97;;;1.65;;
12852;SDS011;6495;51.808;7.478;2022-07-17T04:49:01;5.20;;;2.03;;
12852;SDS011;6495;51.808;7.478;2022-07-17T04:51:29;4.75;;;1.75;;
12852;SDS011;6495;51.808;7.478;2022-07-17T04:53:57;2.53;;;1.55;;
12852;SDS011;6495;51.808;7.478;2022-07-17T04:56:25;6.75;;;2.10;;
12852;SDS011;6495;51.808;7.478;2022-07-17T04:58:53;3.13;;;1.70;;
12852;SDS011;6495;51.808;7.478;2022-07-17T05:01:21;4.32;;;2.08;;
12852;SDS011;6495;51.808;7.478;2022-07-17T05:03:49;3.42;;;1.60;;
12852;SDS011;6495;51.808;7.478;2022-07-17T05:06:19;3.60;;;1.60;;
12852;SDS011;6495;51.808;7.478;2022-07-17T05:08:47;2.45;;;1.73;;
12852;SDS011;6495;51.808;7.478;2022-07-17T05:11:15;2.53;;;1.85;;
12852;SDS011;6495;51.808;7.478;2022-07-17T05:13:43;3.55;;;1.95;;
12852;SDS011;6495;51.808;7.478;2022-07-17T05:16:11;3.28;;;1.95;;
12852;SDS011;6495;51.808;7.478;2022-07-17T05:18:40;6.25;;;1.90;;
12852;SDS011;6495;51.808;7.478;2022-07-17T05:21:08;4.88;;;1.60;;
12852;SDS011;6495;51.808;7.478;2022-07-17T05:23:37;3.72;;;1.77;;
12852;SDS011;6495;51.808;7.478;2022-07-17T05:26:05;3.78;;;1.63;;
12852;SDS011;6495;51.808;7.478;2022-07-17T05:28:33;3.63;;;1.60;;
12852;SDS011;6495;51.808;7.478;2022-07-17T05:31:04;5.72;;;1.90;;
12852;SDS011;6495;51.808;7.478;2022-07-17T05:33:32;3.35;;;1.90;;
12852;SDS011;6495;51.808;7.478;2022-07-17T05:36:01;2.70;;;1.60;;
12852;SDS011;6495;51.808;7.478;2022-07-17T05:38:29;3.83;;;1.60;;
12852;SDS011;6495;51.808;7.478;2022-07-17T05:40:59;4.47;;;1.65;;
12852;SDS011;6495;51.808;7.478;2022-07-17T05:43:27;2.90;;;1.83;;
12852;SDS011;6495;51.808;7.478;2022-07-17T05:45:55;1.88;;;1.40;;
12852;SDS011;6495;51.808;7.478;2022-07-17T05:48:24;2.40;;;1.50;;
12852;SDS011;6495;51.808;7.478;2022-07-17T05:50:53;5.43;;;1.75;;
12852;SDS011;6495;51.808;7.478;2022-07-17T05:53:21;3.70;;;2.22;;
12852;SDS011;6495;51.808;7.478;2022-07-17T05:55:49;3.25;;;1.73;;
12852;SDS011;6495;51.808;7.478;2022-07-17T05:58:19;2.95;;;1.48;;
12852;SDS011;6495;51.808;7.478;2022-07-17T06:00:47;2.63;;;1.73;;
12852;SDS011;6495;51.808;7.478;2022-07-17T06:03:15;3.53;;;1.75;;
12852;SDS011;6495;51.808;7.478;2022-07-17T06:05:44;4.43;;;1.73;;
12852;SDS011;6495;51.808;7.478;2022-07-17T06:08:13;5.90;;;1.80;;
12852;SDS011;6495;51.808;7.478;2022-07-17T06:10:41;2.65;;;1.42;;
12852;SDS011;6495;51.808;7.478;2022-07-17T06:13:09;3.38;;;1.52;;
12852;SDS011;6495;51.808;7.478;2022-07-17T06:15:38;3.80;;;1.25;;
12852;SDS011;6495;51.808;7.478;2022-07-17T06:18:07;4.45;;;1.40;;
12852;SDS011;6495;51.808;7.478;2022-07-17T06:20:36;1.20;;;1.08;;
12852;SDS011;6495;51.808;7.478;2022-07-17T06:23:04;5.53;;;1.30;;
12852;SDS011;6495;51.808;7.478;2022-07-17T06:25:32;6.18;;;1.48;;
12852;SDS011;6495;51.808;7.478;2022-07-17T06:28:00;4.63;;;1.30;;
12852;SDS011;6495;51.808;7.478;2022-07-17T06:30:28;2.65;;;1.38;;
12852;SDS011;6495;51.808;7.478;2022-07-17T06:32:57;4.82;;;1.33;;
12852;SDS011;6495;51.808;7.478;2022-07-17T06:35:25;3.80;;;1.52;;
12852;SDS011;6495;51.808;7.478;2022-07-17T06:37:56;9.57;;;1.52;;
12852;SDS011;6495;51.808;7.478;2022-07-17T06:40:24;2.38;;;1.20;;
12852;SDS011;6495;51.808;7.478;2022-07-17T06:42:53;3.50;;;1.10;;
12852;SDS011;6495;51.808;7.478;2022-07-17T06:45:21;2.35;;;1.08;;
12852;SDS011;6495;51.808;7.478;2022-07-17T06:47:49;2.58;;;1.23;;
12852;SDS011;6495;51.808;7.478;2022-07-17T06:50:18;4.53;;;1.23;;
12852;SDS011;6495;51.808;7.478;2022-07-17T06:52:47;3.60;;;1.73;;
12852;SDS011;6495;51.808;7.478;2022-07-17T06:55:15;4.68;;;1.52;;
12852;SDS011;6495;51.808;7.478;2022-07-17T06:57:43;5.22;;;1.30;;
12852;SDS011;6495;51.808;7.478;2022-07-17T07:00:11;3.65;;;1.30;;
12852;SDS011;6495;51.808;7.478;2022-07-17T07:02:41;3.35;;;1.10;;
12852;SDS011;6495;51.808;7.478;2022-07-17T07:05:09;3.45;;;1.38;;
12852;SDS011;6495;51.808;7.478;2022-07-17T07:07:39;3.70;;;1.23;;
12852;SDS011;6495;51.808;7.478;2022-07-17T07:10:08;5.07;;;1.52;;
12852;SDS011;6495;51.808;7.478;2022-07-17T07:12:36;4.05;;;1.00;;
12852;SDS011;6495;51.808;7.478;2022-07-17T07:15:04;1.92;;;1.27;;
12852;SDS011;6495;51.808;7.478;2022-07-17T07:17:38;1.92;;;0.90;;
12852;SDS011;6495;51.808;7.478;2022-07-17T07:20:10;1.52;;;1.00;;
12852;SDS011;6495;51.808;7.478;2022-07-17T07:22:40;1.95;;;1.08;;
12852;SDS011;6495;51.808;7.478;2022-07-17T07:25:09;2.58;;;0.90;;
12852;SDS011;6495;51.808;7.478;2022-07-17T07:27:43;4.45;;;1.42;;
12852;SDS011;6495;51.808;7.478;2022-07-17T07:30:12;1.75;;;1.08;;
12852;SDS011;6495;51.808;7.478;2022-07-17T07:32:41;3.90;;;1.20;;
12852;SDS011;6495;51.808;7.478;2022-07-17T07:35:09;2.28;;;1.10;;
12852;SDS011;6495;51.808;7.478;2022-07-17T07:37:38;2.03;;;1.15;;
12852;SDS011;6495;51.808;7.478;2022-07-17T07:40:08;2.60;;;1.00;;
12852;SDS011;6495;51.808;7.478;2022-07-17T07:42:38;2.05;;;1.17;;
12852;SDS011;6495;51.808;7.478;2022-07-17T07:45:07;2.30;;;1.00;;
12852;SDS011;6495;51.808;7.478;2022-07-17T07:47:42;1.25;;;1.02;;
12852;SDS011;6495;51.808;7.478;2022-07-17T07:50:11;3.30;;;1.30;;
12852;SDS011;6495;51.808;7.478;2022-07-17T07:52:40;5.80;;;1.38;;
12852;SDS011;6495;51.808;7.478;2022-07-17T07:55:11;2.20;;;0.88;;
12852;SDS011;6495;51.808;7.478;2022-07-17T07:57:46;3.17;;;1.02;;
12852;SDS011;6495;51.808;7.478;2022-07-17T08:00:15;3.38;;;1.27;;
12852;SDS011;6495;51.808;7.478;2022-07-17T08:02:44;3.17;;;1.10;;
12852;SDS011;6495;51.808;7.478;2022-07-17T08:05:13;3.83;;;1.30;;
12852;SDS011;6495;51.808;7.478;2022-07-17T08:07:41;1.30;;;1.00;;
12852;SDS011;6495;51.808;7.478;2022-07-17T08:10:10;4.57;;;1.13;;
12852;SDS011;6495;51.808;7.478;2022-07-17T08:12:38;3.58;;;1.33;;
12852;SDS011;6495;51.808;7.478;2022-07-17T08:15:12;2.45;;;1.20;;
12852;SDS011;6495;51.808;7.478;2022-07-17T08:17:41;3.13;;;0.98;;
12852;SDS011;6495;51.808;7.478;2022-07-17T08:20:10;3.88;;;1.40;;
12852;SDS011;6495;51.808;7.478;2022-07-17T08:22:40;2.17;;;0.98;;
12852;SDS011;6495;51.808;7.478;2022-07-17T08:25:30;5.38;;;1.20;;
12852;SDS011;6495;51.808;7.478;2022-07-17T08:28:00;3.53;;;1.00;;
12852;SDS011;6495;51.808;7.478;2022-07-17T08:30:29;2.30;;;1.00;;
12852;SDS011;6495;51.808;7.478;2022-07-17T08:33:01;3.05;;;0.88;;
12852;SDS011;6495;51.808;7.478;2022-07-17T08:35:29;2.58;;;1.30;;
12852;SDS011;6495;51.808;7.478;2022-07-17T08:37:58;1.85;;;1.00;;
12852;SDS011;6495;51.808;7.478;2022-07-17T08:40:28;3.20;;;1.23;;
12852;SDS011;6495;51.808;7.478;2022-07-17T08:43:02;5.00;;;1.10;;
12852;SDS011;6495;51.808;7.478;2022-07-17T08:45:32;3.22;;;1.00;;
12852;SDS011;6495;51.808;7.478;2022-07-17T08:48:01;2.65;;;1.30;;
12852;SDS011;6495;51.808;7.478;2022-07-17T08:50:31;3.85;;;1.30;;
12852;SDS011;6495;51.808;7.478;2022-07-17T08:53:02;3.95;;;1.50;;
12852;SDS011;6495;51.808;7.478;2022-07-17T08:55:32;2.75;;;1.17;;
12852;SDS011;6495;51.808;7.478;2022-07-17T08:58:01;1.95;;;1.20;;
12852;SDS011;6495;51.808;7.478;2022-07-17T09:00:30;3.55;;;1.20;;
12852;SDS011;6495;51.808;7.478;2022-07-17T09:03:00;1.58;;;0.85;;
12852;SDS011;6495;51.808;7.478;2022-07-17T09:05:32;1.42;;;1.13;;
12852;SDS011;6495;51.808;7.478;2022-07-17T09:08:02;2.58;;;1.13;;
12852;SDS011;6495;51.808;7.478;2022-07-17T09:10:34;4.88;;;1.08;;
12852;SDS011;6495;51.808;7.478;2022-07-17T09:13:15;2.95;;;1.20;;
12852;SDS011;6495;51.808;7.478;2022-07-17T09:15:48;5.43;;;1.20;;
12852;SDS011;6495;51.808;7.478;2022-07-17T09:18:19;1.60;;;1.00;;
12852;SDS011;6495;51.808;7.478;2022-07-17T09:20:49;1.98;;;1.38;;
12852;SDS011;6495;51.808;7.478;2022-07-17T09:23:21;3.17;;;1.00;;
12852;SDS011;6495;51.808;7.478;2022-07-17T09:25:53;1.77;;;1.02;;
12852;SDS011;6495;51.808;7.478;2022-07-17T09:28:23;5.63;;;1.25;;
12852;SDS011;6495;51.808;7.478;2022-07-17T09:30:52;2.67;;;1.05;;
12852;SDS011;6495;51.808;7.478;2022-07-17T09:33:24;4.20;;;1.00;;
12852;SDS011;6495;51.808;7.478;2022-07-17T09:35:56;1.80;;;1.20;;
12852;SDS011;6495;51.808;7.478;2022-07-17T09:38:34;2.03;;;0.80;;
12852;SDS011;6495;51.808;7.478;2022-07-17T09:41:07;3.22;;;1.00;;
12852;SDS011;6495;51.808;7.478;2022-07-17T09:43:41;2.22;;;1.10;;
12852;SDS011;6495;51.808;7.478;2022-07-17T09:46:17;3.05;;;1.17;;
12852;SDS011;6495;51.808;7.478;2022-07-17T09:48:49;2.22;;;1.00;;
12852;SDS011;6495;51.808;7.478;2022-07-17T09:51:20;1.33;;;1.00;;
12852;SDS011;6495;51.808;7.478;2022-07-17T09:53:52;4.68;;;1.30;;
12852;SDS011;6495;51.808;7.478;2022-07-17T09:56:23;1.60;;;1.17;;
12852;SDS011;6495;51.808;7.478;2022-07-17T09:58:55;3.00;;;1.20;;
12852;SDS011;6495;51.808;7.478;2022-07-17T10:01:30;3.67;;;1.15;;
12852;SDS011;6495;51.808;7.478;2022-07-17T10:04:01;2.10;;;1.08;;
12852;SDS011;6495;51.808;7.478;2022-07-17T10:06:30;4.47;;;1.10;;
12852;SDS011;6495;51.808;7.478;2022-07-17T10:09:00;2.20;;;1.00;;
12852;SDS011;6495;51.808;7.478;2022-07-17T10:11:33;2.72;;;1.40;;
12852;SDS011;6495;51.808;7.478;2022-07-17T10:14:13;1.52;;;1.00;;
12852;SDS011;6495;51.808;7.478;2022-07-17T10:16:44;3.33;;;1.05;;
12852;SDS011;6495;51.808;7.478;2022-07-17T10:19:17;2.28;;;1.00;;
12852;SDS011;6495;51.808;7.478;2022-07-17T10:21:53;2.72;;;1.10;;
12852;SDS011;6495;51.808;7.478;2022-07-17T10:24:24;2.08;;;1.00;;
12852;SDS011;6495;51.808;7.478;2022-07-17T10:26:54;1.48;;;1.00;;
12852;SDS011;6495;51.808;7.478;2022-07-17T10:29:27;5.60;;;1.05;;
12852;SDS011;6495;51.808;7.478;2022-07-17T10:32:00;3.55;;;1.20;;
12852;SDS011;6495;51.808;7.478;2022-07-17T10:34:41;3.42;;;1.30;;
12852;SDS011;6495;51.808;7.478;2022-07-17T10:37:19;4.53;;;1.00;;
12852;SDS011;6495;51.808;7.478;2022-07-17T10:39:54;2.58;;;0.82;;
12852;SDS011;6495;51.808;7.478;2022-07-17T10:42:40;5.28;;;1.08;;
12852;SDS011;6495;51.808;7.478;2022-07-17T10:45:27;1.67;;;1.02;;
12852;SDS011;6495;51.808;7.478;2022-07-17T10:48:03;3.03;;;1.00;;
12852;SDS011;6495;51.808;7.478;2022-07-17T10:50:34;2.55;;;1.05;;
12852;SDS011;6495;51.808;7.478;2022-07-17T10:53:15;2.35;;;0.90;;
12852;SDS011;6495;51.808;7.478;2022-07-17T10:55:51;1.58;;;0.88;;
12852;SDS011;6495;51.808;7.478;2022-07-17T10:58:24;2.88;;;0.88;;
12852;SDS011;6495;51.808;7.478;2022-07-17T11:00:55;1.10;;;0.90;;
12852;SDS011;6495;51.808;7.478;2022-07-17T11:03:30;1.98;;;0.90;;
12852;SDS011;6495;51.808;7.478;2022-07-17T11:06:08;3.10;;;1.20;;
12852;SDS011;6495;51.808;7.478;2022-07-17T11:08:41;1.35;;;0.90;;
12852;SDS011;6495;51.808;7.478;2022-07-17T11:11:12;2.03;;;1.08;;
12852;SDS011;6495;51.808;7.478;2022-07-17T11:13:52;2.92;;;1.20;;
12852;SDS011;6495;51.808;7.478;2022-07-17T11:16:25;1.65;;;1.10;;
12852;SDS011;6495;51.808;7.478;2022-07-17T11:18:58;2.03;;;1.20;;
12852;SDS011;6495;51.808;7.478;2022-07-17T11:21:26;1.92;;;0.90;;
12852;SDS011;6495;51.808;7.478;2022-07-17T11:23:56;1.70;;;1.20;;
12852;SDS011;6495;51.808;7.478;2022-07-17T11:26:24;2.42;;;1.10;;
12852;SDS011;6495;51.808;7.478;2022-07-17T11:28:55;1.17;;;0.80;;
12852;SDS011;6495;51.808;7.478;2022-07-17T11:31:28;1.88;;;1.23;;
12852;SDS011;6495;51.808;7.478;2022-07-17T11:33:57;2.88;;;0.93;;
12852;SDS011;6495;51.808;7.478;2022-07-17T11:36:29;2.70;;;0.80;;
12852;SDS011;6495;51.808;7.478;2022-07-17T11:39:03;3.30;;;0.70;;
12852;SDS011;6495;51.808;7.478;2022-07-17T11:41:37;1.83;;;0.93;;
12852;SDS011;6495;51.808;7.478;2022-07-17T11:44:09;2.17;;;1.10;;
12852;SDS011;6495;51.808;7.478;2022-07-17T11:46:40;2.90;;;1.00;;
12852;SDS011;6495;51.808;7.478;2022-07-17T11:49:23;3.38;;;0.80;;
12852;SDS011;6495;51.808;7.478;2022-07-17T11:51:54;2.90;;;0.90;;
12852;SDS011;6495;51.808;7.478;2022-07-17T11:54:24;3.25;;;1.15;;
12852;SDS011;6495;51.808;7.478;2022-07-17T11:56:56;2.13;;;1.10;;
12852;SDS011;6495;51.808;7.478;2022-07-17T11:59:30;1.23;;;0.93;;
12852;SDS011;6495;51.808;7.478;2022-07-17T12:02:06;1.13;;;0.80;;
12852;SDS011;6495;51.808;7.478;2022-07-17T12:04:36;3.38;;;1.13;;
12852;SDS011;6495;51.808;7.478;2022-07-17T12:07:16;2.72;;;1.10;;
12852;SDS011;6495;51.808;7.478;2022-07-17T12:09:46;2.67;;;1.23;;
12852;SDS011;6495;51.808;7.478;2022-07-17T12:12:18;2.30;;;1.00;;
12852;SDS011;6495;51.808;7.478;2022-07-17T12:14:51;2.03;;;1.10;;
12852;SDS011;6495;51.808;7.478;2022-07-17T12:17:20;1.75;;;1.00;;
12852;SDS011;6495;51.808;7.478;2022-07-17T12:19:50;3.20;;;0.98;;
12852;SDS011;6495;51.808;7.478;2022-07-17T12:22:19;2.42;;;0.80;;
12852;SDS011;6495;51.808;7.478;2022-07-17T12:24:47;2.85;;;1.05;;
12852;SDS011;6495;51.808;7.478;2022-07-17T12:27:16;6.07;;;1.05;;
12852;SDS011;6495;51.808;7.478;2022-07-17T12:29:44;3.75;;;1.45;;
12852;SDS011;6495;51.808;7.478;2022-07-17T12:32:16;2.33;;;0.95;;
12852;SDS011;6495;51.808;7.478;2022-07-17T12:34:46;1.65;;;1.13;;
12852;SDS011;6495;51.808;7.478;2022-07-17T12:37:16;1.80;;;0.90;;
12852;SDS011;6495;51.808;7.478;2022-07-17T12:39:47;1.73;;;1.00;;
12852;SDS011;6495;51.808;7.478;2022-07-17T12:42:17;4.90;;;1.27;;
12852;SDS011;6495;51.808;7.478;2022-07-17T12:44:45;1.48;;;0.88;;
12852;SDS011;6495;51.808;7.478;2022-07-17T12:47:13;2.50;;;0.85;;
12852;SDS011;6495;51.808;7.478;2022-07-17T12:49:43;1.15;;;0.80;;
12852;SDS011;6495;51.808;7.478;2022-07-17T12:52:11;1.27;;;0.80;;
12852;SDS011;6495;51.808;7.478;2022-07-17T12:54:40;3.53;;;1.20;;
12852;SDS011;6495;51.808;7.478;2022-07-17T12:57:08;2.22;;;0.80;;
12852;SDS011;6495;51.808;7.478;2022-07-17T12:59:36;1.10;;;0.95;;
12852;SDS011;6495;51.808;7.478;2022-07-17T13:02:04;2.42;;;1.00;;
12852;SDS011;6495;51.808;7.478;2022-07-17T13:04:34;1.05;;;0.90;;
12852;SDS011;6495;51.808;7.478;2022-07-17T13:07:03;1.52;;;1.02;;
12852;SDS011;6495;51.808;7.478;2022-07-17T13:09:32;1.10;;;0.95;;
12852;SDS011;6495;51.808;7.478;2022-07-17T13:12:02;1.60;;;1.00;;
12852;SDS011;6495;51.808;7.478;2022-07-17T13:14:31;0.85;;;0.85;;
12852;SDS011;6495;51.808;7.478;2022-07-17T13:17:01;1.73;;;0.90;;
12852;SDS011;6495;51.808;7.478;2022-07-17T13:19:30;1.77;;;0.90;;
12852;SDS011;6495;51.808;7.478;2022-07-17T13:21:59;2.92;;;1.08;;
12852;SDS011;6495;51.808;7.478;2022-07-17T13:24:30;3.22;;;1.30;;
12852;SDS011;6495;51.808;7.478;2022-07-17T13:26:59;1.95;;;1.20;;
12852;SDS011;6495;51.808;7.478;2022-07-17T13:29:27;1.23;;;1.00;;
12852;SDS011;6495;51.808;7.478;2022-07-17T13:31:56;1.40;;;0.90;;
12852;SDS011;6495;51.808;7.478;2022-07-17T13:34:25;3.60;;;0.90;;
12852;SDS011;6495;51.808;7.478;2022-07-17T13:36:53;1.55;;;1.00;;
12852;SDS011;6495;51.808;7.478;2022-07-17T13:39:30;3.40;;;1.00;;
12852;SDS011;6495;51.808;7.478;2022-07-17T13:41:59;5.05;;;1.08;;
12852;SDS011;6495;51.808;7.478;2022-07-17T13:44:27;3.75;;;1.10;;
12852;SDS011;6495;51.808;7.478;2022-07-17T13:46:57;2.15;;;1.00;;
12852;SDS011;6495;51.808;7.478;2022-07-17T13:49:26;2.03;;;1.00;;
12852;SDS011;6495;51.808;7.478;2022-07-17T13:51:54;1.83;;;1.00;;
12852;SDS011;6495;51.808;7.478;2022-07-17T13:54:22;3.42;;;1.00;;
12852;SDS011;6495;51.808;7.478;2022-07-17T13:56:52;2.22;;;1.00;;
12852;SDS011;6495;51.808;7.478;2022-07-17T13:59:20;1.33;;;1.10;;
12852;SDS011;6495;51.808;7.478;2022-07-17T14:01:49;1.13;;;0.82;;
12852;SDS011;6495;51.808;7.478;2022-07-17T14:04:17;1.77;;;1.00;;
12852;SDS011;6495;51.808;7.478;2022-07-17T14:06:46;2.05;;;0.85;;
12852;SDS011;6495;51.808;7.478;2022-07-17T14:09:14;17.23;;;1.85;;
12852;SDS011;6495;51.808;7.478;2022-07-17T14:11:42;5.32;;;1.15;;
12852;SDS011;6495;51.808;7.478;2022-07-17T14:14:12;2.63;;;0.88;;
12852;SDS011;6495;51.808;7.478;2022-07-17T14:16:40;1.73;;;1.00;;
12852;SDS011;6495;51.808;7.478;2022-07-17T14:19:09;2.88;;;0.88;;
12852;SDS011;6495;51.808;7.478;2022-07-17T14:21:52;2.00;;;0.80;;
12852;SDS011;6495;51.808;7.478;2022-07-17T14:24:21;2.05;;;1.00;;
12852;SDS011;6495;51.808;7.478;2022-07-17T14:26:49;3.67;;;1.20;;
12852;SDS011;6495;51.808;7.478;2022-07-17T14:29:17;2.65;;;1.10;;
12852;SDS011;6495;51.808;7.478;2022-07-17T14:31:45;3.53;;;1.20;;
12852;SDS011;6495;51.808;7.478;2022-07-17T14:34:14;1.95;;;1.30;;
12852;SDS011;6495;51.808;7.478;2022-07-17T14:36:46;2.38;;;1.38;;
12852;SDS011;6495;51.808;7.478;2022-07-17T14:39:16;1.88;;;1.00;;
12852;SDS011;6495;51.808;7.478;2022-07-17T14:41:45;3.00;;;1.02;;
12852;SDS011;6495;51.808;7.478;2022-07-17T14:44:13;1.90;;;1.00;;
12852;SDS011;6495;51.808;7.478;2022-07-17T14:46:41;1.48;;;1.10;;
12852;SDS011;6495;51.808;7.478;2022-07-17T14:49:10;2.45;;;1.02;;
12852;SDS011;6495;51.808;7.478;2022-07-17T14:51:52;2.58;;;0.90;;
12852;SDS011;6495;51.808;7.478;2022-07-17T14:54:34;2.70;;;1.20;;
12852;SDS011;6495;51.808;7.478;2022-07-17T14:57:03;2.35;;;1.02;;
12852;SDS011;6495;51.808;7.478;2022-07-17T14:59:31;3.70;;;1.00;;
12852;SDS011;6495;51.808;7.478;2022-07-17T15:02:00;1.33;;;0.85;;
12852;SDS011;6495;51.808;7.478;2022-07-17T15:04:28;3.15;;;0.95;;
12852;SDS011;6495;51.808;7.478;2022-07-17T15:06:56;2.95;;;1.30;;
12852;SDS011;6495;51.808;7.478;2022-07-17T15:09:29;1.58;;;1.10;;
12852;SDS011;6495;51.808;7.478;2022-07-17T15:11:59;3.92;;;1.00;;
12852;SDS011;6495;51.808;7.478;2022-07-17T15:14:28;1.63;;;1.08;;
12852;SDS011;6495;51.808;7.478;2022-07-17T15:16:56;2.65;;;1.25;;